createdAt,value
2022-09-17T00:01:16.820Z,0.60
2022-09-17T00:04:19.546Z,0.60
2022-09-17T00:07:21.000Z,0.50
2022-09-17T00:10:23.143Z,0.77
2022-09-17T00:13:24.749Z,0.80
2022-09-17T00:16:39.097Z,0.80
2022-09-17T00:19:40.647Z,0.80
2022-09-17T00:22:42.128Z,0.73
2022-09-17T00:25:45.224Z,0.63
2022-09-17T00:28:50.263Z,0.67
2022-09-17T00:31:51.674Z,0.73
2022-09-17T00:34:53.117Z,0.70
2022-09-17T00:37:54.526Z,0.90
2022-09-17T00:40:55.896Z,0.80
2022-09-17T00:44:00.513Z,0.70
2022-09-17T00:47:01.950Z,0.80
2022-09-17T00:50:07.445Z,0.80
2022-09-17T00:53:15.532Z,0.63
2022-09-17T00:56:25.973Z,0.57
2022-09-17T00:59:28.050Z,0.70
2022-09-17T01:02:29.662Z,0.60
2022-09-17T01:05:47.328Z,0.80
2022-09-17T01:09:17.845Z,0.63
2022-09-17T01:12:44.638Z,0.80
2022-09-17T01:16:19.062Z,0.67
2022-09-17T01:19:38.829Z,0.90
2022-09-17T01:22:59.013Z,0.63
2022-09-17T01:26:29.790Z,0.67
2022-09-17T01:30:02.616Z,0.70
2022-09-17T01:33:23.561Z,0.80
2022-09-17T01:36:45.377Z,0.80
2022-09-17T01:39:57.884Z,0.93
2022-09-17T01:43:10.621Z,0.80
2022-09-17T01:46:19.756Z,0.90
2022-09-17T01:49:25.378Z,1.00
2022-09-17T01:52:28.928Z,0.90
2022-09-17T01:55:35.866Z,1.20
2022-09-17T01:58:45.943Z,0.93
2022-09-17T02:01:51.742Z,1.00
2022-09-17T02:05:02.809Z,0.77
2022-09-17T02:08:17.123Z,0.90
2022-09-17T02:11:19.689Z,0.93
2022-09-17T02:14:49.633Z,0.90
2022-09-17T02:18:06.875Z,0.90
2022-09-17T02:21:20.307Z,1.40
2022-09-17T02:24:31.187Z,0.80
2022-09-17T02:27:42.894Z,1.33
2022-09-17T02:30:44.437Z,0.87
2022-09-17T02:33:50.896Z,0.90
2022-09-17T02:36:52.597Z,0.80
2022-09-17T02:39:54.710Z,1.00
2022-09-17T02:43:28.567Z,1.20
2022-09-17T02:46:41.066Z,0.80
2022-09-17T02:49:57.798Z,0.80
2022-09-17T02:53:14.718Z,0.80
2022-09-17T02:56:55.481Z,0.70
2022-09-17T03:00:07.904Z,0.70
2022-09-17T03:03:17.168Z,0.80
2022-09-17T03:06:18.849Z,0.90
2022-09-17T03:09:20.773Z,0.97
2022-09-17T03:12:24.758Z,0.97
2022-09-17T03:15:26.244Z,0.80
2022-09-17T03:18:27.704Z,1.00
2022-09-17T03:21:29.115Z,1.00
2022-09-17T03:24:31.152Z,0.90
2022-09-17T03:27:32.521Z,0.97
2022-09-17T03:30:34.063Z,1.10
2022-09-17T03:33:35.480Z,1.10
2022-09-17T03:36:36.876Z,1.30
2022-09-17T03:39:38.401Z,1.07
2022-09-17T03:42:39.772Z,0.70
2022-09-17T03:45:43.268Z,0.97
2022-09-17T03:48:44.646Z,1.10
2022-09-17T03:51:46.070Z,0.90
2022-09-17T03:54:48.091Z,1.27
2022-09-17T03:57:49.557Z,1.00
2022-09-17T04:00:53.204Z,1.17
2022-09-17T04:03:55.051Z,1.20
2022-09-17T04:06:56.605Z,1.13
2022-09-17T04:09:57.996Z,1.00
2022-09-17T04:12:59.694Z,1.40
2022-09-17T04:16:01.327Z,1.20
2022-09-17T04:19:02.784Z,1.10
2022-09-17T04:22:04.853Z,1.10
2022-09-17T04:25:06.784Z,1.63
2022-09-17T04:28:08.413Z,1.40
2022-09-17T04:31:09.946Z,1.00
2022-09-17T04:34:11.342Z,1.20
2022-09-17T04:37:12.735Z,1.20
2022-09-17T04:40:14.191Z,1.20
2022-09-17T04:43:15.601Z,1.67
2022-09-17T04:46:17.095Z,1.50
2022-09-17T04:49:18.911Z,1.20
2022-09-17T04:52:20.943Z,1.20
2022-09-17T04:55:22.343Z,1.20
2022-09-17T04:58:24.291Z,1.30
2022-09-17T05:01:25.914Z,1.43
2022-09-17T05:04:27.362Z,1.40
2022-09-17T05:07:28.732Z,1.40
2022-09-17T05:10:30.246Z,1.47
2022-09-17T05:13:31.680Z,1.10
2022-09-17T05:16:33.352Z,1.47
2022-09-17T05:19:34.792Z,2.50
2022-09-17T05:22:40.027Z,1.20
2022-09-17T05:25:41.442Z,1.63
2022-09-17T05:28:42.838Z,1.50
2022-09-17T05:31:44.323Z,1.40
2022-09-17T05:34:45.726Z,1.37
2022-09-17T05:37:47.355Z,1.20
2022-09-17T05:40:51.883Z,1.57
2022-09-17T05:43:53.261Z,1.60
2022-09-17T05:46:54.692Z,1.40
2022-09-17T05:49:56.108Z,1.37
2022-09-17T05:52:57.890Z,1.30
2022-09-17T05:55:59.418Z,1.70
2022-09-17T05:59:00.913Z,1.40
2022-09-17T06:02:02.398Z,1.50
2022-09-17T06:05:04.986Z,1.67
2022-09-17T06:08:07.075Z,1.53
2022-09-17T06:11:09.376Z,2.23
2022-09-17T06:14:10.849Z,2.13
2022-09-17T06:17:12.403Z,1.43
2022-09-17T06:20:13.985Z,1.97
2022-09-17T06:23:16.121Z,2.00
2022-09-17T06:26:18.527Z,2.00
2022-09-17T06:29:20.518Z,1.87
2022-09-17T06:32:21.885Z,2.00
2022-09-17T06:35:23.292Z,2.20
2022-09-17T06:38:24.690Z,2.00
2022-09-17T06:41:27.013Z,2.00
2022-09-17T06:44:29.298Z,1.80
2022-09-17T06:47:30.665Z,1.70
2022-09-17T06:50:32.063Z,1.73
2022-09-17T06:53:34.319Z,1.60
2022-09-17T06:56:35.979Z,1.50
2022-09-17T06:59:37.522Z,1.83
2022-09-17T07:02:38.889Z,1.40
2022-09-17T07:05:43.682Z,1.60
2022-09-17T07:08:45.094Z,1.90
2022-09-17T07:11:48.819Z,1.87
2022-09-17T07:14:50.171Z,2.30
2022-09-17T07:17:52.857Z,1.80
2022-09-17T07:20:55.128Z,2.27
2022-09-17T07:23:56.526Z,1.93
2022-09-17T07:26:58.002Z,1.93
2022-09-17T07:29:59.500Z,1.47
2022-09-17T07:33:02.266Z,1.83
2022-09-17T07:36:07.935Z,1.80
2022-09-17T07:39:09.707Z,1.67
2022-09-17T07:42:11.361Z,1.80
2022-09-17T07:45:12.751Z,1.80
2022-09-17T07:48:14.162Z,1.80
2022-09-17T07:51:17.169Z,1.57
2022-09-17T07:54:18.534Z,1.40
2022-09-17T07:57:19.892Z,1.83
2022-09-17T08:00:21.599Z,2.20
2022-09-17T08:03:22.981Z,2.20
2022-09-17T08:06:26.179Z,1.67
2022-09-17T08:09:27.757Z,1.57
2022-09-17T08:12:29.128Z,2.17
2022-09-17T08:15:30.600Z,1.83
2022-09-17T08:18:32.649Z,1.90
2022-09-17T08:21:34.075Z,1.90
2022-09-17T08:24:35.516Z,2.13
2022-09-17T08:27:40.389Z,1.50
2022-09-17T08:30:41.967Z,1.60
2022-09-17T08:33:43.665Z,1.40
2022-09-17T08:36:45.031Z,1.60
2022-09-17T08:39:46.453Z,1.50
2022-09-17T08:43:01.550Z,1.43
2022-09-17T08:46:03.129Z,1.37
2022-09-17T08:49:18.118Z,1.37
2022-09-17T08:52:19.422Z,1.47
2022-09-17T08:55:46.088Z,1.30
2022-09-17T08:59:05.690Z,1.63
2022-09-17T09:02:22.868Z,1.20
2022-09-17T09:05:37.377Z,1.40
2022-09-17T09:08:48.362Z,1.40
2022-09-17T09:11:58.082Z,1.30
2022-09-17T09:15:02.911Z,1.33
2022-09-17T09:18:29.859Z,1.27
2022-09-17T09:21:45.327Z,1.30
2022-09-17T09:25:18.093Z,1.50
2022-09-17T09:28:46.837Z,1.00
2022-09-17T09:32:00.061Z,1.37
2022-09-17T09:35:13.299Z,1.33
2022-09-17T09:38:14.676Z,1.40
2022-09-17T09:41:40.156Z,1.20
2022-09-17T09:44:42.145Z,1.73
2022-09-17T09:48:03.709Z,1.97
2022-09-17T09:51:13.380Z,1.40
2022-09-17T09:54:46.656Z,1.30
2022-09-17T09:57:51.779Z,1.13
2022-09-17T10:00:53.179Z,1.10
2022-09-17T10:03:58.095Z,1.10
2022-09-17T10:07:06.368Z,1.40
2022-09-17T10:10:10.347Z,1.80
2022-09-17T10:13:14.754Z,1.10
2022-09-17T10:16:20.634Z,1.20
2022-09-17T10:19:25.256Z,1.10
2022-09-17T10:22:33.085Z,1.30
2022-09-17T10:25:35.272Z,1.37
2022-09-17T10:28:50.741Z,1.10
2022-09-17T10:31:55.564Z,1.00
2022-09-17T10:35:25.324Z,1.30
2022-09-17T10:38:44.135Z,1.00
2022-09-17T10:41:56.446Z,1.17
2022-09-17T10:44:59.842Z,1.10
2022-09-17T10:48:02.000Z,1.10
2022-09-17T10:51:06.586Z,1.20
2022-09-17T10:54:44.775Z,1.17
2022-09-17T10:58:07.967Z,1.20
2022-09-17T11:01:18.942Z,1.37
2022-09-17T11:04:40.950Z,1.50
2022-09-17T11:08:00.969Z,1.33
2022-09-17T11:11:02.315Z,1.00
2022-09-17T11:14:06.613Z,1.57
2022-09-17T11:17:13.349Z,1.00
2022-09-17T11:20:21.189Z,1.10
2022-09-17T11:23:47.315Z,1.00
2022-09-17T11:27:01.647Z,1.40
2022-09-17T11:30:16.871Z,1.33
2022-09-17T11:33:39.201Z,1.20
2022-09-17T11:37:05.541Z,1.20
2022-09-17T11:40:15.836Z,0.90
2022-09-17T11:43:27.718Z,0.77
2022-09-17T11:46:41.955Z,0.50
2022-09-17T11:49:50.477Z,0.80
2022-09-17T11:53:17.513Z,0.60
2022-09-17T11:56:43.631Z,0.53
2022-09-17T11:59:52.250Z,0.70
2022-09-17T12:03:01.956Z,0.70
2022-09-17T12:06:10.184Z,0.73
2022-09-17T12:09:23.080Z,0.70
2022-09-17T12:12:48.265Z,1.00
2022-09-17T12:15:55.372Z,0.57
2022-09-17T12:19:02.614Z,0.90
2022-09-17T12:22:22.788Z,0.93
2022-09-17T12:25:32.851Z,0.93
2022-09-17T12:28:51.597Z,0.73
2022-09-17T12:31:52.907Z,0.80
2022-09-17T12:35:41.025Z,0.90
2022-09-17T12:39:02.633Z,0.80
2022-09-17T12:42:19.938Z,0.80
2022-09-17T12:45:39.873Z,0.90
2022-09-17T12:48:44.084Z,0.70
2022-09-17T12:52:02.804Z,0.80
2022-09-17T12:55:25.944Z,0.90
2022-09-17T12:58:55.216Z,0.70
2022-09-17T13:02:04.594Z,0.90
2022-09-17T13:05:39.777Z,0.67
2022-09-17T13:09:02.184Z,0.90
2022-09-17T13:12:13.985Z,1.13
2022-09-17T13:15:33.923Z,0.67
2022-09-17T13:19:15.596Z,0.90
2022-09-17T13:22:21.529Z,0.80
2022-09-17T13:25:24.760Z,0.60
2022-09-17T13:28:46.149Z,0.90
2022-09-17T13:31:49.936Z,0.80
2022-09-17T13:34:51.387Z,0.80
2022-09-17T13:37:52.796Z,0.80
2022-09-17T13:41:21.660Z,0.90
2022-09-17T13:44:23.799Z,0.77
2022-09-17T13:47:29.653Z,0.83
2022-09-17T13:50:36.917Z,1.13
2022-09-17T13:53:38.940Z,0.73
2022-09-17T13:56:50.578Z,0.83
2022-09-17T13:59:54.958Z,1.10
2022-09-17T14:03:31.190Z,1.00
2022-09-17T14:06:33.575Z,0.90
2022-09-17T14:09:50.090Z,1.10
2022-09-17T14:12:53.924Z,0.83
2022-09-17T14:16:00.149Z,1.17
2022-09-17T14:19:03.152Z,0.90
2022-09-17T14:22:07.626Z,0.90
2022-09-17T14:25:16.650Z,0.80
2022-09-17T14:28:45.159Z,1.00
2022-09-17T14:31:46.771Z,0.63
2022-09-17T14:34:49.622Z,0.80
2022-09-17T14:37:56.185Z,0.70
2022-09-17T14:41:04.970Z,0.93
2022-09-17T14:44:14.460Z,0.90
2022-09-17T14:47:18.725Z,0.70
2022-09-17T14:50:26.065Z,0.93
2022-09-17T14:53:27.439Z,0.90
2022-09-17T14:56:29.234Z,0.87
2022-09-17T14:59:46.151Z,0.70
2022-09-17T15:02:55.526Z,0.70
2022-09-17T15:05:57.056Z,0.90
2022-09-17T15:08:58.480Z,0.70
2022-09-17T15:12:01.217Z,0.67
2022-09-17T15:15:02.898Z,0.90
2022-09-17T15:18:04.994Z,0.90
2022-09-17T15:21:22.191Z,0.60
2022-09-17T15:24:47.784Z,0.70
2022-09-17T15:27:52.850Z,0.50
2022-09-17T15:30:54.264Z,0.70
2022-09-17T15:33:59.668Z,0.60
2022-09-17T15:37:10.330Z,0.70
2022-09-17T15:40:33.134Z,0.70
2022-09-17T15:43:34.552Z,0.73
2022-09-17T15:46:35.965Z,0.70
2022-09-17T15:49:37.844Z,0.80
2022-09-17T15:52:39.346Z,0.60
2022-09-17T15:55:44.473Z,0.70
2022-09-17T15:58:45.859Z,0.77
2022-09-17T16:01:47.787Z,0.60
2022-09-17T16:04:52.643Z,1.00
2022-09-17T16:07:54.186Z,0.70
2022-09-17T16:10:55.565Z,1.00
2022-09-17T16:14:00.130Z,0.60
2022-09-17T16:17:29.258Z,0.60
2022-09-17T16:20:30.917Z,0.60
2022-09-17T16:23:32.315Z,0.70
2022-09-17T16:26:35.092Z,0.70
2022-09-17T16:29:36.462Z,0.70
2022-09-17T16:32:38.055Z,0.60
2022-09-17T16:35:39.586Z,0.70
2022-09-17T16:38:41.003Z,0.67
2022-09-17T16:41:42.415Z,1.00
2022-09-17T16:44:44.009Z,0.80
2022-09-17T16:47:45.830Z,0.70
2022-09-17T16:50:47.214Z,1.00
2022-09-17T16:53:50.083Z,0.83
2022-09-17T16:56:51.505Z,0.80
2022-09-17T16:59:53.084Z,0.70
2022-09-17T17:02:56.814Z,0.80
2022-09-17T17:05:58.232Z,0.70
2022-09-17T17:09:02.386Z,0.67
2022-09-17T17:12:04.026Z,0.70
2022-09-17T17:15:06.544Z,0.70
2022-09-17T17:18:07.910Z,0.97
2022-09-17T17:21:11.425Z,0.93
2022-09-17T17:24:12.842Z,1.00
2022-09-17T17:27:14.549Z,0.80
2022-09-17T17:30:17.181Z,1.30
2022-09-17T17:33:20.628Z,0.70
2022-09-17T17:36:22.010Z,1.13
2022-09-17T17:39:23.405Z,0.60
2022-09-17T17:42:24.768Z,1.30
2022-09-17T17:45:26.205Z,1.10
2022-09-17T17:48:28.321Z,1.20
2022-09-17T17:51:29.710Z,1.00
2022-09-17T17:54:31.502Z,1.37
2022-09-17T17:57:32.929Z,1.00
2022-09-17T18:00:34.345Z,0.80
2022-09-17T18:03:35.737Z,0.90
2022-09-17T18:06:37.140Z,0.80
2022-09-17T18:09:38.496Z,0.60
2022-09-17T18:12:39.868Z,0.73
2022-09-17T18:15:50.583Z,0.80
2022-09-17T18:18:52.372Z,0.80
2022-09-17T18:21:54.443Z,0.90
2022-09-17T18:24:55.820Z,0.80
2022-09-17T18:27:57.238Z,0.90
2022-09-17T18:31:18.161Z,0.90
2022-09-17T18:34:19.590Z,0.70
2022-09-17T18:37:20.948Z,0.83
2022-09-17T18:40:22.426Z,0.70
2022-09-17T18:43:23.889Z,0.90
2022-09-17T18:46:25.363Z,0.90
2022-09-17T18:49:26.978Z,0.73
2022-09-17T18:52:28.345Z,1.10
2022-09-17T18:55:30.072Z,0.80
2022-09-17T18:58:31.470Z,0.70
2022-09-17T19:01:32.897Z,0.90
2022-09-17T19:04:34.296Z,0.80
2022-09-17T19:07:35.904Z,0.83
2022-09-17T19:10:37.309Z,0.90
2022-09-17T19:13:41.285Z,0.80
2022-09-17T19:16:42.645Z,0.70
2022-09-17T19:19:44.168Z,0.63
2022-09-17T19:22:45.997Z,0.70
2022-09-17T19:25:47.383Z,0.67
2022-09-17T19:28:52.459Z,0.70
2022-09-17T19:31:53.859Z,0.80
2022-09-17T19:34:55.268Z,0.60
2022-09-17T19:37:59.605Z,0.90
2022-09-17T19:41:03.941Z,0.87
2022-09-17T19:44:05.310Z,0.80
2022-09-17T19:47:06.755Z,1.00
2022-09-17T19:50:08.486Z,0.87
2022-09-17T19:53:09.850Z,0.70
2022-09-17T19:56:17.023Z,0.90
2022-09-17T19:59:18.473Z,0.70
2022-09-17T20:02:19.986Z,0.60
2022-09-17T20:05:21.439Z,0.80
2022-09-17T20:08:22.884Z,0.80
2022-09-17T20:11:25.475Z,0.93
2022-09-17T20:14:27.601Z,0.80
2022-09-17T20:17:29.481Z,0.93
2022-09-17T20:20:31.280Z,1.00
2022-09-17T20:23:32.782Z,0.90
2022-09-17T20:26:34.938Z,0.70
2022-09-17T20:29:36.308Z,0.80
2022-09-17T20:32:37.669Z,0.83
2022-09-17T20:35:39.104Z,0.80
2022-09-17T20:42:02.951Z,1.00
2022-09-17T20:45:05.099Z,0.90
2022-09-17T20:48:06.655Z,0.90
2022-09-17T20:51:11.806Z,1.03
2022-09-17T20:54:13.638Z,1.10
2022-09-17T20:57:15.117Z,0.90
2022-09-17T21:00:21.409Z,0.90
2022-09-17T21:03:23.001Z,0.80
2022-09-17T21:06:29.826Z,0.70
2022-09-17T21:09:31.198Z,0.70
2022-09-17T21:12:32.578Z,0.70
2022-09-17T21:15:33.952Z,0.80
2022-09-17T21:18:39.467Z,0.70
2022-09-17T21:21:41.199Z,0.60
2022-09-17T21:24:42.571Z,0.80
2022-09-17T21:27:43.928Z,0.90
2022-09-17T21:30:46.721Z,0.70
2022-09-17T21:33:51.616Z,0.80
2022-09-17T21:36:53.049Z,1.03
2022-09-17T21:39:54.527Z,1.10
2022-09-17T21:42:56.014Z,1.00
2022-09-17T21:46:02.002Z,1.10
2022-09-17T21:49:04.572Z,1.50
2022-09-17T21:52:06.032Z,1.13
2022-09-17T21:55:07.813Z,1.70
2022-09-17T21:58:09.776Z,1.30
2022-09-17T22:01:14.229Z,1.30
2022-09-17T22:04:19.148Z,1.27
2022-09-17T22:07:23.048Z,1.30
2022-09-17T22:10:24.925Z,1.43
2022-09-17T22:13:26.315Z,1.33
2022-09-17T22:16:30.588Z,1.53
2022-09-17T22:19:32.199Z,1.23
2022-09-17T22:22:33.553Z,1.27
2022-09-17T22:25:34.908Z,1.30
2022-09-17T22:28:36.356Z,1.47
2022-09-17T22:31:38.089Z,1.50
2022-09-17T22:34:39.482Z,1.50
2022-09-17T22:37:40.856Z,1.13
2022-09-17T22:40:42.245Z,1.00
2022-09-17T22:43:44.297Z,1.40
2022-09-17T22:46:48.251Z,1.00
2022-09-17T22:49:49.706Z,1.20
2022-09-17T22:52:51.078Z,1.40
2022-09-17T22:55:56.943Z,0.90
2022-09-17T22:58:59.278Z,1.30
2022-09-17T23:02:00.712Z,1.00
2022-09-17T23:05:02.139Z,1.00
2022-09-17T23:08:03.507Z,1.27
2022-09-17T23:11:07.221Z,1.20
2022-09-17T23:14:11.880Z,1.30
2022-09-17T23:17:13.312Z,1.20
2022-09-17T23:20:14.744Z,1.10
2022-09-17T23:23:16.129Z,1.20
2022-09-17T23:26:20.568Z,1.30
2022-09-17T23:29:22.123Z,1.30
2022-09-17T23:32:23.515Z,1.33
2022-09-17T23:35:25.334Z,1.40
2022-09-17T23:38:26.814Z,1.43
2022-09-17T23:41:31.480Z,1.57
2022-09-17T23:44:32.858Z,1.40
2022-09-17T23:47:34.254Z,2.03
2022-09-17T23:50:35.653Z,1.30
2022-09-17T23:53:37.692Z,1.50
2022-09-17T23:56:39.136Z,1.20
2022-09-17T23:59:40.525Z,1.20
